Terminal Aerodrome Forecast
Issued by NWS

Home | Current Version | Previous Version | Text Only | Print | Product List | Glossary On
Versions: 1 2 3 4 5 6 7 8 9 10 11 12 13 14 15 16 17 18 19 20 21 22 23 24 25
000
FTUS41 KCTP 231720
TAFBFD
TAF
KBFD 231720Z 2318/2418 30015G25KT P6SM VCSH OVC012
      TEMPO 2318/2320 3SM -SHRASN BKN009 OVC020
     FM232000 32015G25KT P6SM SCT020 BKN040
     FM240400 VRB04KT P6SM SKC
     FM241500 32010KT P6SM SKC=

USA.gov is the U.S. government's official web portal to all federal, state and local government web resources and services.